GXLGA EGNH-EGGP
Flight info
| Callsign | GXLGA |
|---|---|
| Flight time | 0h 18m |
| Altitude | 3000 |
| Route | DIR |
| Aircraft | EC35/L-V/N |
Departure
| Time | 2026-04-15 16:11 |
|---|---|
| Airport | Blackpool Airport (EGNH) |
Arrival
| Time | 2026-04-15 16:29 |
|---|---|
| Airport | Liverpool John Lennon Airport (EGGP) |
| Time | Latitude | Longitude | Altitude | Speed | Heading |
|---|---|---|---|---|---|
| 2026-04-15 16:05 | 53.77814 | -3.04069 | 35 ft | 0 kts | 148° |
| 2026-04-15 16:08 | 53.77810 | -3.04066 | 38 ft | 1 kts | 138° |
| 2026-04-15 16:09 | 53.77802 | -3.04054 | 41 ft | 3 kts | 120° |
| 2026-04-15 16:09 | 53.77781 | -3.04034 | 46 ft | 3 kts | 167° |
| 2026-04-15 16:09 | 53.77726 | -3.04074 | 59 ft | 22 kts | 191° |
| 2026-04-15 16:09 | 53.77642 | -3.04168 | 44 ft | 3 kts | 196° |
| 2026-04-15 16:10 | 53.77616 | -3.04199 | 55 ft | 9 kts | 199° |
| 2026-04-15 16:10 | 53.77557 | -3.04270 | 102 ft | 14 kts | 197° |
| 2026-04-15 16:10 | 53.77475 | -3.04340 | 59 ft | 12 kts | 192° |
| 2026-04-15 16:10 | 53.77329 | -3.04139 | 113 ft | 57 kts | 128° |
| 2026-04-15 16:11 | 53.77044 | -3.03756 | 324 ft | 53 kts | 149° |
| 2026-04-15 16:11 | 53.76600 | -3.03830 | 392 ft | 75 kts | 207° |
| 2026-04-15 16:11 | 53.76124 | -3.04322 | 563 ft | 83 kts | 199° |
| 2026-04-15 16:11 | 53.75527 | -3.04241 | 652 ft | 97 kts | 160° |
| 2026-04-15 16:12 | 53.74891 | -3.03636 | 600 ft | 111 kts | 139° |
| 2026-04-15 16:12 | 53.74314 | -3.02702 | 579 ft | 115 kts | 132° |
| 2026-04-15 16:12 | 53.73822 | -3.01706 | 716 ft | 111 kts | 125° |
| 2026-04-15 16:12 | 53.73446 | -3.00549 | 821 ft | 97 kts | 103° |
| 2026-04-15 16:13 | 53.73187 | -2.99553 | 1146 ft | 80 kts | 122° |
| 2026-04-15 16:13 | 53.73038 | -2.99041 | 1314 ft | 61 kts | 95° |
| 2026-04-15 16:13 | 53.72824 | -2.98120 | 1287 ft | 99 kts | 115° |
| 2026-04-15 16:13 | 53.72375 | -2.97185 | 1275 ft | 112 kts | 141° |
| 2026-04-15 16:14 | 53.71651 | -2.96693 | 1237 ft | 117 kts | 172° |
| 2026-04-15 16:14 | 53.70828 | -2.96823 | 1191 ft | 115 kts | 181° |
| 2026-04-15 16:14 | 53.70113 | -2.97301 | 1246 ft | 111 kts | 216° |
| 2026-04-15 16:14 | 53.69515 | -2.98164 | 1251 ft | 106 kts | 223° |
| 2026-04-15 16:15 | 53.68999 | -2.99033 | 1364 ft | 107 kts | 218° |
| 2026-04-15 16:15 | 53.68439 | -2.99964 | 1378 ft | 113 kts | 221° |
| 2026-04-15 16:15 | 53.68388 | -3.00049 | 1411 ft | 110 kts | 219° |
| 2026-04-15 16:16 | 53.68355 | -3.00102 | 1429 ft | 109 kts | 220° |
| 2026-04-15 16:16 | 53.68019 | -3.00600 | 1828 ft | 73 kts | 217° |
| 2026-04-15 16:16 | 53.67562 | -3.01165 | 2065 ft | 89 kts | 211° |
| 2026-04-15 16:17 | 53.66999 | -3.01760 | 2226 ft | 98 kts | 214° |
| 2026-04-15 16:17 | 53.66435 | -3.02491 | 2346 ft | 105 kts | 224° |
| 2026-04-15 16:17 | 53.65839 | -3.03205 | 2530 ft | 104 kts | 212° |
| 2026-04-15 16:17 | 53.65194 | -3.03886 | 2587 ft | 113 kts | 208° |
| 2026-04-15 16:18 | 53.64493 | -3.04611 | 2558 ft | 121 kts | 209° |
| 2026-04-15 16:18 | 53.63792 | -3.05253 | 2687 ft | 118 kts | 205° |
| 2026-04-15 16:18 | 53.63005 | -3.06061 | 2336 ft | 140 kts | 208° |
| 2026-04-15 16:18 | 53.62203 | -3.06917 | 2321 ft | 130 kts | 207° |
| 2026-04-15 16:19 | 53.61432 | -3.07681 | 2317 ft | 129 kts | 208° |
| 2026-04-15 16:19 | 53.60630 | -3.08361 | 2252 ft | 130 kts | 196° |
| 2026-04-15 16:19 | 53.59792 | -3.08899 | 2080 ft | 122 kts | 202° |
| 2026-04-15 16:19 | 53.58998 | -3.09544 | 1985 ft | 126 kts | 199° |
| 2026-04-15 16:20 | 53.58201 | -3.10088 | 2030 ft | 128 kts | 196° |
| 2026-04-15 16:20 | 53.57340 | -3.10609 | 1801 ft | 140 kts | 199° |
| 2026-04-15 16:20 | 53.56542 | -3.11149 | 1945 ft | 121 kts | 192° |
| 2026-04-15 16:20 | 53.55703 | -3.11322 | 1920 ft | 129 kts | 168° |
| 2026-04-15 16:21 | 53.54818 | -3.10959 | 1859 ft | 130 kts | 149° |
| 2026-04-15 16:21 | 53.53972 | -3.10383 | 1895 ft | 121 kts | 160° |
| 2026-04-15 16:21 | 53.53164 | -3.09980 | 2011 ft | 119 kts | 155° |
| 2026-04-15 16:21 | 53.52365 | -3.09456 | 1880 ft | 131 kts | 157° |
| 2026-04-15 16:22 | 53.51536 | -3.08933 | 1933 ft | 127 kts | 154° |
| 2026-04-15 16:22 | 53.50736 | -3.08380 | 2043 ft | 121 kts | 156° |
| 2026-04-15 16:22 | 53.49945 | -3.07804 | 2072 ft | 124 kts | 150° |
| 2026-04-15 16:22 | 53.49149 | -3.07116 | 1894 ft | 137 kts | 145° |
| 2026-04-15 16:23 | 53.48326 | -3.06354 | 1742 ft | 138 kts | 154° |
| 2026-04-15 16:23 | 53.47487 | -3.05708 | 1694 ft | 129 kts | 148° |
| 2026-04-15 16:23 | 53.46705 | -3.05086 | 1749 ft | 110 kts | 141° |
| 2026-04-15 16:23 | 53.46063 | -3.04304 | 1821 ft | 117 kts | 141° |
| 2026-04-15 16:24 | 53.45315 | -3.03479 | 1593 ft | 132 kts | 147° |
| 2026-04-15 16:24 | 53.44472 | -3.02738 | 1382 ft | 139 kts | 155° |
| 2026-04-15 16:24 | 53.43547 | -3.02335 | 1232 ft | 134 kts | 174° |
| 2026-04-15 16:24 | 53.42826 | -3.02328 | 1377 ft | 108 kts | 172° |
| 2026-04-15 16:25 | 53.42112 | -3.02020 | 1524 ft | 109 kts | 156° |
| 2026-04-15 16:25 | 53.41391 | -3.01477 | 1587 ft | 116 kts | 156° |
| 2026-04-15 16:25 | 53.40622 | -3.00949 | 1507 ft | 129 kts | 163° |
| 2026-04-15 16:25 | 53.39799 | -3.00509 | 1583 ft | 122 kts | 160° |
| 2026-04-15 16:26 | 53.39014 | -2.99905 | 1581 ft | 119 kts | 149° |
| 2026-04-15 16:26 | 53.38319 | -2.99233 | 1782 ft | 110 kts | 143° |
| 2026-04-15 16:26 | 53.37671 | -2.98425 | 1806 ft | 118 kts | 144° |
| 2026-04-15 16:26 | 53.37025 | -2.97615 | 1979 ft | 111 kts | 140° |
| 2026-04-15 16:27 | 53.36502 | -2.96760 | 2221 ft | 98 kts | 136° |
| 2026-04-15 16:27 | 53.35914 | -2.95890 | 2102 ft | 117 kts | 131° |
| 2026-04-15 16:27 | 53.35322 | -2.94994 | 1965 ft | 122 kts | 141° |
| 2026-04-15 16:27 | 53.34764 | -2.93827 | 1724 ft | 137 kts | 122° |
| 2026-04-15 16:28 | 53.34203 | -2.92502 | 1543 ft | 139 kts | 119° |
| 2026-04-15 16:28 | 53.33733 | -2.91235 | 1222 ft | 103 kts | 126° |
| 2026-04-15 16:28 | 53.33334 | -2.90049 | 858 ft | 121 kts | 106° |
| 2026-04-15 16:28 | 53.33101 | -2.88678 | 835 ft | 129 kts | 83° |
| 2026-04-15 16:29 | 53.33242 | -2.87121 | 486 ft | 137 kts | 68° |
| 2026-04-15 16:29 | 53.33334 | -2.85802 | 290 ft | 107 kts | 77° |
| 2026-04-15 16:29 | 53.33376 | -2.84699 | 245 ft | 73 kts | 53° |
| 2026-04-15 16:29 | 53.33548 | -2.84038 | 191 ft | 35 kts | 41° |
| 2026-04-15 16:30 | 53.33577 | -2.83905 | 124 ft | 9 kts | 352° |
| 2026-04-15 16:30 | 53.33656 | -2.83914 | 121 ft | 11 kts | 337° |
| 2026-04-15 16:30 | 53.33710 | -2.83922 | 132 ft | 6 kts | 338° |
| 2026-04-15 16:30 | 53.33720 | -2.83922 | 112 ft | 1 kts | 340° |
| 2026-04-15 16:31 | 53.33719 | -2.83922 | 100 ft | 0 kts | 341° |
| 2026-04-15 16:31 | 53.33720 | -2.83919 | 92 ft | 1 kts | 323° |
| 2026-04-15 16:31 | 53.33722 | -2.83914 | 91 ft | 0 kts | 327° |
| 2026-04-15 16:31 | 53.33722 | -2.83913 | 90 ft | 0 kts | 325° |
| 2026-04-15 16:51 | 53.33723 | -2.83913 | 90 ft | 0 kts | 320° |
| 2026-04-15 16:57 | 53.33724 | -2.83913 | 90 ft | 0 kts | 277° |
| 2026-04-15 16:58 | 53.33723 | -2.83913 | 90 ft | 0 kts | 227° |
| 2026-04-15 16:58 | 53.33723 | -2.83912 | 90 ft | 0 kts | 218° |
| 2026-04-15 16:58 | 53.33723 | -2.83911 | 90 ft | 0 kts | 178° |
| 2026-04-15 17:02 | 53.33723 | -2.83910 | 90 ft | 0 kts | 142° |